Algona, IA

8:36 AM CDT on April 25, 2015 (GMT -0500)
Algona Municipal | | Change Station
CLOSE
Current Station
Airport
Location: Algona,
Elevation: 1220 ft
Nearby Weather Stations

Elev 1220 ft 43.08 °N, 94.27 °W | Updated 21 minutes ago

Overcast
Overcast
43 °F
Feels Like 36 °F
N
14
Wind Variable Wind from East
Gusts 20 mph

Today
High -- | Low -- °F
--% Chance of Precip.
Yesterday
High -- | Low -- °F
Precip. -- in
6:19 AM 8:10 PM
Waxing Crescent, 46% visible
Pressure 29.72 in
Visibility 8.0 miles
Clouds Overcast 4100 ft
Windchill 36 °F
Dew Point 39 °F
Humidity 87%
Rainfall 0.00 in
Snow Depth Not available.
UV 0 out of 12
Pollen 9.30 out of 12
Air Quality Not available.
Flu Activity Local Activity
METAR KAXA 251315Z AUTO 08012G17KT 8SM OVC041 06/04 A2972 RMK AO2

More Conditions Fewer Conditions

Pressure 29.72 in
Visibility 8.0 miles
Clouds Overcast 4100 ft
Windchill 36 °F
Dew Point 39 °F
Humidity 87%
Rainfall 0.00 in
Snow Depth Not available.
UV 0 out of 12
Pollen 9.30 out of 12
Air Quality Not available.
Flu Activity Local Activity
METAR KAXA 251315Z AUTO 08012G17KT 8SM OVC041 06/04 A2972 RMK AO2

More Conditions Fewer Conditions

10-Day Weather Forecast

Almanac

Astronomy

Apr. 25, 2015 Rise Set
Actual Time
Civil Twilight
Nautical Twilight
Astronomical Twilight
Moon
Length of Visible Light
Length of Day
Tomorrow will be .
, % of the Moon is Illuminated

Today's Extremes

State Highs State Lows

Community

WunderPhotos

Upload Photos

1,816,668 photos uploaded!

WunderBlogs® & News

Nearby

Air Quality

  Air Quality AQ Index Pollutant
Not available.

Snow Depth

Station Depth Elevation

Earthquake Activity

City Distance Mag. Time & Date
Minimum magnitude displayed is 2.5.

Coastal Water Temperatures

Place Temperature

Stations

Nearby Weather Stations

Station Location Temp. Windchill Dew Point Humidity Wind Precip. Elev Updated Type